This is the latest recevied weather packets stored in our database for station/object MKSRDG. If no packets are shown the sender has not sent any weather packets the latest 10 day(s).
| Time | Temp. | Humidity | Pressure | Rain* | Wind** | Luminosity | Snow |
|---|---|---|---|---|---|---|---|
| 1777414204 | 13.89° C | 64% | 1023 hPa | 0 mm | - | 413 W/m² | - |
| 1777413305 | 12.78° C | 66% | 1023.1 hPa | 0 mm | - | 392 W/m² | - |
| 1777412404 | 12.78° C | 68% | 1023.1 hPa | 0 mm | - | 406 W/m² | - |
| 1777411505 | 12.22° C | 67% | 1023.3 hPa | 0 mm | - | 494 W/m² | - |
| 1777410605 | 11.67° C | 70% | 1023.2 hPa | 0 mm | - | 341 W/m² | - |
| 1777409705 | 12.22° C | 66% | 1023.3 hPa | 0 mm | - | 346 W/m² | - |
| 1777408805 | 12.22° C | 65% | 1023.5 hPa | 0 mm | - | 381 W/m² | - |
| 1777407905 | 11.67° C | 63% | 1023.5 hPa | 0 mm | - | 399 W/m² | - |
| 1777407005 | 11.67° C | 64% | 1023.5 hPa | 0 mm | - | 385 W/m² | - |
| 1777406105 | 11.67° C | 73% | 1023.7 hPa | 0 mm | - | 410 W/m² | - |
| 1777405205 | 11.11° C | 73% | 1023.8 hPa | 0 mm | - | 322 W/m² | - |
| 1777404305 | 11.11° C | 72% | 1023.9 hPa | 0 mm | - | 413 W/m² | - |
| 1777403405 | 12.22° C | 78% | 1023.8 hPa | 0 mm | - | 1102 W/m² | - |
| 1777402505 | 10.56° C | 78% | 1024.1 hPa | 0 mm | - | 482 W/m² | - |
| 1777401605 | 10° C | 78% | 1024.1 hPa | 0 mm | - | 250 W/m² | - |
| 1777400705 | 10.56° C | 76% | 1024 hPa | 0 mm | - | 401 W/m² | - |
| 1777399805 | 10.56° C | 80% | 1024 hPa | 0 mm | - | 550 W/m² | - |
| 1777398905 | 10° C | 81% | 1024 hPa | 0 mm | - | 469 W/m² | - |
| 1777398005 | 9.44° C | 83% | 1024 hPa | 0 mm | - | 394 W/m² | - |
| 1777397105 | 8.89° C | 83% | 1024.1 hPa | 0 mm | - | 246 W/m² | - |
| 1777396205 | 8.33° C | 85% | 1024 hPa | 0 mm | - | 214 W/m² | - |
| 1777395305 | 8.33° C | 85% | 1023.9 hPa | 0 mm | - | 185 W/m² | - |
| 1777394405 | 8.33° C | 86% | 1023.8 hPa | 0 mm | - | 186 W/m² | - |
| 1777393505 | 8.33° C | 86% | 1023.9 hPa | 0 mm | - | 248 W/m² | - |
| 1777392605 | 8.33° C | 88% | 1023.8 hPa | 0 mm | - | 262 W/m² | - |
* Rain latest hour (hover to see other rain measurements)
** Current wind speed in m/s (hover to see current wind gust speed)